sensor_id;sensor_type;location;lat;lon;timestamp;temperature;humidity
1361;DHT22;674;45.552;-122.600;2023-02-28T00:01:47;4.80;28.00
1361;DHT22;674;45.552;-122.600;2023-02-28T00:04:15;4.90;43.00
1361;DHT22;674;45.552;-122.600;2023-02-28T00:06:44;5.20;22.20
1361;DHT22;674;45.552;-122.600;2023-02-28T00:09:12;5.00;29.00
1361;DHT22;674;45.552;-122.600;2023-02-28T00:11:40;5.10;25.20
1361;DHT22;674;45.552;-122.600;2023-02-28T00:14:09;5.60;29.00
1361;DHT22;674;45.552;-122.600;2023-02-28T00:16:37;5.10;1.00
1361;DHT22;674;45.552;-122.600;2023-02-28T00:19:06;5.10;1.00
1361;DHT22;674;45.552;-122.600;2023-02-28T00:21:35;5.10;1.00
1361;DHT22;674;45.552;-122.600;2023-02-28T00:24:03;4.80;1.00
1361;DHT22;674;45.552;-122.600;2023-02-28T00:26:32;4.40;1.00
1361;DHT22;674;45.552;-122.600;2023-02-28T00:29:00;4.50;1.80
1361;DHT22;674;45.552;-122.600;2023-02-28T00:31:29;4.40;12.90
1361;DHT22;674;45.552;-122.600;2023-02-28T00:33:57;4.30;24.50
1361;DHT22;674;45.552;-122.600;2023-02-28T00:36:26;4.30;24.70
1361;DHT22;674;45.552;-122.600;2023-02-28T00:38:54;4.40;66.60
1361;DHT22;674;45.552;-122.600;2023-02-28T00:41:23;4.20;99.10
1361;DHT22;674;45.552;-122.600;2023-02-28T00:43:51;4.10;99.90
1361;DHT22;674;45.552;-122.600;2023-02-28T00:46:19;3.80;99.90
1361;DHT22;674;45.552;-122.600;2023-02-28T00:48:48;3.70;99.90
1361;DHT22;674;45.552;-122.600;2023-02-28T00:51:17;3.60;99.90
1361;DHT22;674;45.552;-122.600;2023-02-28T00:53:45;3.60;99.90
1361;DHT22;674;45.552;-122.600;2023-02-28T00:56:13;3.60;99.90
1361;DHT22;674;45.552;-122.600;2023-02-28T00:58:42;3.50;99.90
1361;DHT22;674;45.552;-122.600;2023-02-28T01:01:10;3.60;99.90
1361;DHT22;674;45.552;-122.600;2023-02-28T01:03:39;3.40;99.90
1361;DHT22;674;45.552;-122.600;2023-02-28T01:06:08;3.60;99.90
1361;DHT22;674;45.552;-122.600;2023-02-28T01:08:36;3.80;99.90
1361;DHT22;674;45.552;-122.600;2023-02-28T01:11:13;3.70;99.90
1361;DHT22;674;45.552;-122.600;2023-02-28T01:13:44;3.80;99.90
1361;DHT22;674;45.552;-122.600;2023-02-28T01:16:13;3.70;99.90
1361;DHT22;674;45.552;-122.600;2023-02-28T01:18:42;3.80;99.90
1361;DHT22;674;45.552;-122.600;2023-02-28T01:21:13;3.40;99.90
1361;DHT22;674;45.552;-122.600;2023-02-28T01:23:42;3.70;99.90
1361;DHT22;674;45.552;-122.600;2023-02-28T01:26:16;3.50;99.90
1361;DHT22;674;45.552;-122.600;2023-02-28T01:28:46;3.50;99.90
1361;DHT22;674;45.552;-122.600;2023-02-28T01:31:15;3.60;99.90
1361;DHT22;674;45.552;-122.600;2023-02-28T01:33:44;3.80;99.90
1361;DHT22;674;45.552;-122.600;2023-02-28T01:36:16;3.60;99.90
1361;DHT22;674;45.552;-122.600;2023-02-28T01:38:46;3.80;99.90
1361;DHT22;674;45.552;-122.600;2023-02-28T01:41:18;4.00;99.90
1361;DHT22;674;45.552;-122.600;2023-02-28T01:46:16;3.70;99.90
1361;DHT22;674;45.552;-122.600;2023-02-28T01:48:49;3.90;99.90
1361;DHT22;674;45.552;-122.600;2023-02-28T01:51:41;4.10;99.90
1361;DHT22;674;45.552;-122.600;2023-02-28T01:54:22;3.80;99.90
1361;DHT22;674;45.552;-122.600;2023-02-28T01:57:09;3.80;99.90
1361;DHT22;674;45.552;-122.600;2023-02-28T01:59:52;4.30;99.90
1361;DHT22;674;45.552;-122.600;2023-02-28T02:02:23;3.80;99.90
1361;DHT22;674;45.552;-122.600;2023-02-28T02:05:06;3.80;99.90
1361;DHT22;674;45.552;-122.600;2023-02-28T02:07:40;3.80;99.90
1361;DHT22;674;45.552;-122.600;2023-02-28T02:10:15;4.00;99.90
1361;DHT22;674;45.552;-122.600;2023-02-28T02:34:40;3.90;99.90
1361;DHT22;674;45.552;-122.600;2023-02-28T02:39:54;4.00;99.90
1361;DHT22;674;45.552;-122.600;2023-02-28T02:42:50;4.20;99.90
1361;DHT22;674;45.552;-122.600;2023-02-28T02:45:25;4.00;99.90
1361;DHT22;674;45.552;-122.600;2023-02-28T02:47:59;4.20;99.90
1361;DHT22;674;45.552;-122.600;2023-02-28T02:50:33;4.00;99.90
1361;DHT22;674;45.552;-122.600;2023-02-28T02:53:04;4.00;99.90
1361;DHT22;674;45.552;-122.600;2023-02-28T02:55:36;4.00;99.90
1361;DHT22;674;45.552;-122.600;2023-02-28T02:58:10;4.20;99.90
1361;DHT22;674;45.552;-122.600;2023-02-28T03:00:43;4.30;99.90
1361;DHT22;674;45.552;-122.600;2023-02-28T03:03:16;4.10;99.90
1361;DHT22;674;45.552;-122.600;2023-02-28T03:05:50;4.10;99.90
1361;DHT22;674;45.552;-122.600;2023-02-28T03:08:18;4.00;99.90
1361;DHT22;674;45.552;-122.600;2023-02-28T03:11:01;4.10;99.90
1361;DHT22;674;45.552;-122.600;2023-02-28T03:24:54;4.10;99.90
1361;DHT22;674;45.552;-122.600;2023-02-28T03:30:04;4.10;99.90
1361;DHT22;674;45.552;-122.600;2023-02-28T03:32:57;4.20;99.90
1361;DHT22;674;45.552;-122.600;2023-02-28T03:35:34;4.00;99.90
1361;DHT22;674;45.552;-122.600;2023-02-28T03:38:18;4.30;99.90
1361;DHT22;674;45.552;-122.600;2023-02-28T03:41:14;4.20;99.90
1361;DHT22;674;45.552;-122.600;2023-02-28T03:43:42;4.30;98.90
1361;DHT22;674;45.552;-122.600;2023-02-28T03:46:16;4.20;97.80
1361;DHT22;674;45.552;-122.600;2023-02-28T03:49:04;4.20;96.90
1361;DHT22;674;45.552;-122.600;2023-02-28T03:51:36;4.00;98.80
1361;DHT22;674;45.552;-122.600;2023-02-28T03:54:11;4.30;99.10
1361;DHT22;674;45.552;-122.600;2023-02-28T03:56:53;4.30;98.90
1361;DHT22;674;45.552;-122.600;2023-02-28T03:59:37;4.20;99.90
1361;DHT22;674;45.552;-122.600;2023-02-28T04:02:08;4.00;99.90
1361;DHT22;674;45.552;-122.600;2023-02-28T04:04:37;4.20;99.90
1361;DHT22;674;45.552;-122.600;2023-02-28T04:07:07;4.10;99.90
1361;DHT22;674;45.552;-122.600;2023-02-28T04:09:37;4.10;99.90
1361;DHT22;674;45.552;-122.600;2023-02-28T04:12:05;4.10;99.90
1361;DHT22;674;45.552;-122.600;2023-02-28T04:14:34;4.10;99.90
1361;DHT22;674;45.552;-122.600;2023-02-28T04:17:02;3.80;99.90
1361;DHT22;674;45.552;-122.600;2023-02-28T04:19:30;3.60;99.90
1361;DHT22;674;45.552;-122.600;2023-02-28T04:21:59;3.80;99.90
1361;DHT22;674;45.552;-122.600;2023-02-28T04:24:28;4.00;99.90
1361;DHT22;674;45.552;-122.600;2023-02-28T04:26:58;3.70;99.90
1361;DHT22;674;45.552;-122.600;2023-02-28T04:29:32;3.80;99.90
1361;DHT22;674;45.552;-122.600;2023-02-28T04:32:01;3.50;99.90
1361;DHT22;674;45.552;-122.600;2023-02-28T04:34:31;3.60;99.90
1361;DHT22;674;45.552;-122.600;2023-02-28T04:37:01;3.50;99.90
1361;DHT22;674;45.552;-122.600;2023-02-28T04:39:40;3.50;99.90
1361;DHT22;674;45.552;-122.600;2023-02-28T04:42:10;3.60;99.90
1361;DHT22;674;45.552;-122.600;2023-02-28T04:44:39;3.60;99.90
1361;DHT22;674;45.552;-122.600;2023-02-28T04:47:07;3.40;99.90
1361;DHT22;674;45.552;-122.600;2023-02-28T04:49:36;3.50;99.90
1361;DHT22;674;45.552;-122.600;2023-02-28T04:52:04;3.70;99.90
1361;DHT22;674;45.552;-122.600;2023-02-28T04:54:35;3.60;99.90
1361;DHT22;674;45.552;-122.600;2023-02-28T04:57:03;3.30;99.90
1361;DHT22;674;45.552;-122.600;2023-02-28T04:59:32;3.50;99.90
1361;DHT22;674;45.552;-122.600;2023-02-28T05:02:00;3.50;99.90
1361;DHT22;674;45.552;-122.600;2023-02-28T05:04:35;3.50;99.90
1361;DHT22;674;45.552;-122.600;2023-02-28T05:07:04;3.50;99.90
1361;DHT22;674;45.552;-122.600;2023-02-28T05:09:32;3.70;99.90
1361;DHT22;674;45.552;-122.600;2023-02-28T05:12:03;3.50;99.90
1361;DHT22;674;45.552;-122.600;2023-02-28T05:14:32;3.40;99.90
1361;DHT22;674;45.552;-122.600;2023-02-28T05:17:00;3.50;99.90
1361;DHT22;674;45.552;-122.600;2023-02-28T05:19:28;3.50;99.90
1361;DHT22;674;45.552;-122.600;2023-02-28T05:21:58;3.60;99.90
1361;DHT22;674;45.552;-122.600;2023-02-28T05:24:27;3.50;99.90
1361;DHT22;674;45.552;-122.600;2023-02-28T05:26:55;3.50;99.90
1361;DHT22;674;45.552;-122.600;2023-02-28T05:29:24;3.50;99.90
1361;DHT22;674;45.552;-122.600;2023-02-28T05:31:52;3.50;99.90
1361;DHT22;674;45.552;-122.600;2023-02-28T05:34:21;3.50;99.90
1361;DHT22;674;45.552;-122.600;2023-02-28T05:36:49;3.30;99.90
1361;DHT22;674;45.552;-122.600;2023-02-28T05:39:17;3.30;99.90
1361;DHT22;674;45.552;-122.600;2023-02-28T05:41:46;3.30;99.90
1361;DHT22;674;45.552;-122.600;2023-02-28T05:44:15;3.30;99.90
1361;DHT22;674;45.552;-122.600;2023-02-28T05:46:43;3.30;99.90
1361;DHT22;674;45.552;-122.600;2023-02-28T05:49:12;3.10;99.90
1361;DHT22;674;45.552;-122.600;2023-02-28T05:51:41;3.30;99.90
1361;DHT22;674;45.552;-122.600;2023-02-28T05:54:09;3.20;99.90
1361;DHT22;674;45.552;-122.600;2023-02-28T05:56:40;3.60;99.90
1361;DHT22;674;45.552;-122.600;2023-02-28T05:59:14;3.30;99.90
1361;DHT22;674;45.552;-122.600;2023-02-28T06:01:44;3.40;99.90
1361;DHT22;674;45.552;-122.600;2023-02-28T06:04:18;3.30;99.90
1361;DHT22;674;45.552;-122.600;2023-02-28T06:06:57;3.20;99.90
1361;DHT22;674;45.552;-122.600;2023-02-28T06:09:26;3.30;99.90
1361;DHT22;674;45.552;-122.600;2023-02-28T06:11:55;3.20;99.90
1361;DHT22;674;45.552;-122.600;2023-02-28T06:14:25;3.30;99.90
1361;DHT22;674;45.552;-122.600;2023-02-28T06:16:53;3.20;99.90
1361;DHT22;674;45.552;-122.600;2023-02-28T06:19:25;3.30;99.90
1361;DHT22;674;45.552;-122.600;2023-02-28T06:21:54;3.20;99.90
1361;DHT22;674;45.552;-122.600;2023-02-28T06:24:25;3.30;99.90
1361;DHT22;674;45.552;-122.600;2023-02-28T06:26:55;3.30;99.90
1361;DHT22;674;45.552;-122.600;2023-02-28T06:29:25;3.30;99.90
1361;DHT22;674;45.552;-122.600;2023-02-28T06:31:54;3.30;99.90
1361;DHT22;674;45.552;-122.600;2023-02-28T06:34:23;3.30;99.90
1361;DHT22;674;45.552;-122.600;2023-02-28T06:36:52;3.20;99.90
1361;DHT22;674;45.552;-122.600;2023-02-28T06:39:20;3.20;99.90
1361;DHT22;674;45.552;-122.600;2023-02-28T06:41:49;3.20;99.90
1361;DHT22;674;45.552;-122.600;2023-02-28T06:44:22;3.30;99.90
1361;DHT22;674;45.552;-122.600;2023-02-28T06:46:51;3.20;99.90
1361;DHT22;674;45.552;-122.600;2023-02-28T06:49:19;3.00;99.90
1361;DHT22;674;45.552;-122.600;2023-02-28T06:51:48;3.10;99.90
1361;DHT22;674;45.552;-122.600;2023-02-28T06:54:16;3.00;99.90
1361;DHT22;674;45.552;-122.600;2023-02-28T06:56:45;3.00;99.90
1361;DHT22;674;45.552;-122.600;2023-02-28T06:59:15;3.00;99.90
1361;DHT22;674;45.552;-122.600;2023-02-28T07:01:44;3.10;99.90
1361;DHT22;674;45.552;-122.600;2023-02-28T07:04:13;3.00;99.90
1361;DHT22;674;45.552;-122.600;2023-02-28T07:06:41;3.00;99.90
1361;DHT22;674;45.552;-122.600;2023-02-28T07:09:09;2.90;99.90
1361;DHT22;674;45.552;-122.600;2023-02-28T07:11:38;3.00;99.90
1361;DHT22;674;45.552;-122.600;2023-02-28T07:14:07;2.90;99.90
1361;DHT22;674;45.552;-122.600;2023-02-28T07:16:36;3.10;99.90
1361;DHT22;674;45.552;-122.600;2023-02-28T07:19:04;3.10;99.90
1361;DHT22;674;45.552;-122.600;2023-02-28T07:21:33;2.90;99.90
1361;DHT22;674;45.552;-122.600;2023-02-28T07:24:01;3.00;99.90
1361;DHT22;674;45.552;-122.600;2023-02-28T07:26:30;2.90;99.90
1361;DHT22;674;45.552;-122.600;2023-02-28T07:28:58;2.90;99.90
1361;DHT22;674;45.552;-122.600;2023-02-28T07:31:27;2.90;99.90
1361;DHT22;674;45.552;-122.600;2023-02-28T07:33:56;3.10;99.90
1361;DHT22;674;45.552;-122.600;2023-02-28T07:36:25;3.00;99.90
1361;DHT22;674;45.552;-122.600;2023-02-28T07:38:53;2.90;99.90
1361;DHT22;674;45.552;-122.600;2023-02-28T07:41:23;3.00;99.90
1361;DHT22;674;45.552;-122.600;2023-02-28T07:43:55;3.00;99.90
1361;DHT22;674;45.552;-122.600;2023-02-28T07:46:26;2.90;99.90
1361;DHT22;674;45.552;-122.600;2023-02-28T07:48:56;2.90;99.90
1361;DHT22;674;45.552;-122.600;2023-02-28T07:51:27;3.10;99.90
1361;DHT22;674;45.552;-122.600;2023-02-28T07:53:56;2.70;99.90
1361;DHT22;674;45.552;-122.600;2023-02-28T07:56:25;2.60;99.90
1361;DHT22;674;45.552;-122.600;2023-02-28T07:58:54;3.00;99.90
1361;DHT22;674;45.552;-122.600;2023-02-28T08:01:23;2.90;99.90
1361;DHT22;674;45.552;-122.600;2023-02-28T08:03:51;2.80;99.90
1361;DHT22;674;45.552;-122.600;2023-02-28T08:06:22;3.00;99.90
1361;DHT22;674;45.552;-122.600;2023-02-28T08:08:52;2.70;99.90
1361;DHT22;674;45.552;-122.600;2023-02-28T08:11:21;2.80;99.90
1361;DHT22;674;45.552;-122.600;2023-02-28T08:13:49;2.80;99.90
1361;DHT22;674;45.552;-122.600;2023-02-28T08:16:18;2.90;99.90
1361;DHT22;674;45.552;-122.600;2023-02-28T08:18:53;3.10;99.90
1361;DHT22;674;45.552;-122.600;2023-02-28T08:21:22;2.90;99.90
1361;DHT22;674;45.552;-122.600;2023-02-28T08:23:51;3.10;99.90
1361;DHT22;674;45.552;-122.600;2023-02-28T08:26:20;3.00;99.90
1361;DHT22;674;45.552;-122.600;2023-02-28T08:28:49;3.00;99.90
1361;DHT22;674;45.552;-122.600;2023-02-28T08:31:18;2.90;99.90
1361;DHT22;674;45.552;-122.600;2023-02-28T08:33:47;2.80;99.90
1361;DHT22;674;45.552;-122.600;2023-02-28T08:36:18;2.90;99.90
1361;DHT22;674;45.552;-122.600;2023-02-28T08:38:47;2.80;99.90
1361;DHT22;674;45.552;-122.600;2023-02-28T08:41:16;2.80;99.90
1361;DHT22;674;45.552;-122.600;2023-02-28T08:43:44;2.90;99.90
1361;DHT22;674;45.552;-122.600;2023-02-28T08:46:13;2.80;99.90
1361;DHT22;674;45.552;-122.600;2023-02-28T08:48:42;3.00;99.90
1361;DHT22;674;45.552;-122.600;2023-02-28T08:51:14;2.80;99.90
1361;DHT22;674;45.552;-122.600;2023-02-28T08:53:49;3.00;99.90
1361;DHT22;674;45.552;-122.600;2023-02-28T08:56:17;2.90;99.90
1361;DHT22;674;45.552;-122.600;2023-02-28T08:58:47;3.10;99.90
1361;DHT22;674;45.552;-122.600;2023-02-28T09:03:47;2.80;99.90
1361;DHT22;674;45.552;-122.600;2023-02-28T09:06:17;3.00;99.90
1361;DHT22;674;45.552;-122.600;2023-02-28T09:08:46;2.50;99.90
1361;DHT22;674;45.552;-122.600;2023-02-28T09:11:15;2.70;99.90
1361;DHT22;674;45.552;-122.600;2023-02-28T09:13:44;2.80;99.90
1361;DHT22;674;45.552;-122.600;2023-02-28T09:16:14;3.00;99.90
1361;DHT22;674;45.552;-122.600;2023-02-28T09:18:44;3.00;99.90
1361;DHT22;674;45.552;-122.600;2023-02-28T09:21:15;3.00;99.90
1361;DHT22;674;45.552;-122.600;2023-02-28T09:23:46;2.90;99.90
1361;DHT22;674;45.552;-122.600;2023-02-28T09:26:20;3.00;99.90
1361;DHT22;674;45.552;-122.600;2023-02-28T09:28:49;3.00;99.90
1361;DHT22;674;45.552;-122.600;2023-02-28T09:31:21;3.00;99.90
1361;DHT22;674;45.552;-122.600;2023-02-28T09:33:50;2.80;99.90
1361;DHT22;674;45.552;-122.600;2023-02-28T09:36:20;2.80;99.90
1361;DHT22;674;45.552;-122.600;2023-02-28T09:38:57;3.00;99.90
1361;DHT22;674;45.552;-122.600;2023-02-28T09:41:27;3.00;99.90
1361;DHT22;674;45.552;-122.600;2023-02-28T09:44:02;3.00;99.90
1361;DHT22;674;45.552;-122.600;2023-02-28T09:46:45;2.80;99.90
1361;DHT22;674;45.552;-122.600;2023-02-28T09:49:20;2.70;99.90
1361;DHT22;674;45.552;-122.600;2023-02-28T09:52:03;2.70;99.90
1361;DHT22;674;45.552;-122.600;2023-02-28T09:54:33;2.60;99.90
1361;DHT22;674;45.552;-122.600;2023-02-28T09:59:56;2.80;99.90
1361;DHT22;674;45.552;-122.600;2023-02-28T10:02:54;2.60;99.90
1361;DHT22;674;45.552;-122.600;2023-02-28T10:08:22;2.60;99.90
1361;DHT22;674;45.552;-122.600;2023-02-28T10:10:59;2.70;99.90
1361;DHT22;674;45.552;-122.600;2023-02-28T10:16:18;2.70;99.90
1361;DHT22;674;45.552;-122.600;2023-02-28T10:18:54;2.60;99.90
1361;DHT22;674;45.552;-122.600;2023-02-28T10:22:01;2.70;99.90
1361;DHT22;674;45.552;-122.600;2023-02-28T10:24:36;2.80;99.90
1361;DHT22;674;45.552;-122.600;2023-02-28T10:29:49;2.50;99.90
1361;DHT22;674;45.552;-122.600;2023-02-28T10:32:22;2.50;99.90
1361;DHT22;674;45.552;-122.600;2023-02-28T10:34:59;2.50;99.90
1361;DHT22;674;45.552;-122.600;2023-02-28T10:37:28;2.40;99.90
1361;DHT22;674;45.552;-122.600;2023-02-28T10:39:58;2.40;99.90
1361;DHT22;674;45.552;-122.600;2023-02-28T10:42:28;2.40;99.90
1361;DHT22;674;45.552;-122.600;2023-02-28T10:45:15;2.40;99.90
1361;DHT22;674;45.552;-122.600;2023-02-28T10:47:57;2.40;99.90
1361;DHT22;674;45.552;-122.600;2023-02-28T10:50:31;2.50;99.90
1361;DHT22;674;45.552;-122.600;2023-02-28T10:56:05;2.40;99.90
1361;DHT22;674;45.552;-122.600;2023-02-28T11:01:42;2.20;99.90
1361;DHT22;674;45.552;-122.600;2023-02-28T11:07:22;2.50;99.90
1361;DHT22;674;45.552;-122.600;2023-02-28T11:09:58;2.00;99.90
1361;DHT22;674;45.552;-122.600;2023-02-28T11:12:31;2.00;99.90
1361;DHT22;674;45.552;-122.600;2023-02-28T11:15:23;2.50;99.90
1361;DHT22;674;45.552;-122.600;2023-02-28T11:17:59;2.20;99.90
1361;DHT22;674;45.552;-122.600;2023-02-28T11:20:31;2.40;99.90
1361;DHT22;674;45.552;-122.600;2023-02-28T11:23:03;2.40;99.90
1361;DHT22;674;45.552;-122.600;2023-02-28T11:25:37;2.10;99.90
1361;DHT22;674;45.552;-122.600;2023-02-28T11:28:23;2.20;99.90
1361;DHT22;674;45.552;-122.600;2023-02-28T11:36:28;2.30;99.90
1361;DHT22;674;45.552;-122.600;2023-02-28T11:39:00;2.20;99.90
1361;DHT22;674;45.552;-122.600;2023-02-28T11:41:42;2.00;99.90
1361;DHT22;674;45.552;-122.600;2023-02-28T12:09:47;2.50;99.90
1361;DHT22;674;45.552;-122.600;2023-02-28T12:20:46;2.40;99.90
1361;DHT22;674;45.552;-122.600;2023-02-28T12:23:44;2.50;99.90
1361;DHT22;674;45.552;-122.600;2023-02-28T12:26:31;2.40;99.90
1361;DHT22;674;45.552;-122.600;2023-02-28T12:29:29;2.40;99.90
1361;DHT22;674;45.552;-122.600;2023-02-28T12:32:23;2.40;99.90
1361;DHT22;674;45.552;-122.600;2023-02-28T12:40:22;2.20;99.90
1361;DHT22;674;45.552;-122.600;2023-02-28T12:43:09;2.20;99.90
1361;DHT22;674;45.552;-122.600;2023-02-28T12:48:43;2.10;99.90
1361;DHT22;674;45.552;-122.600;2023-02-28T12:51:12;2.30;99.90
1361;DHT22;674;45.552;-122.600;2023-02-28T12:53:53;2.00;99.90
1361;DHT22;674;45.552;-122.600;2023-02-28T12:59:37;2.20;99.90
1361;DHT22;674;45.552;-122.600;2023-02-28T13:10:46;2.20;99.90
1361;DHT22;674;45.552;-122.600;2023-02-28T13:13:27;2.30;99.90
1361;DHT22;674;45.552;-122.600;2023-02-28T13:18:33;2.50;99.90
1361;DHT22;674;45.552;-122.600;2023-02-28T13:21:08;2.20;99.90
1361;DHT22;674;45.552;-122.600;2023-02-28T13:26:09;2.50;99.90
1361;DHT22;674;45.552;-122.600;2023-02-28T13:34:34;2.50;99.90
1361;DHT22;674;45.552;-122.600;2023-02-28T13:40:27;2.70;99.90
1361;DHT22;674;45.552;-122.600;2023-02-28T13:42:56;2.70;99.90
1361;DHT22;674;45.552;-122.600;2023-02-28T13:45:30;2.70;99.90
1361;DHT22;674;45.552;-122.600;2023-02-28T13:48:17;3.00;99.90
1361;DHT22;674;45.552;-122.600;2023-02-28T13:50:47;2.90;99.90
1361;DHT22;674;45.552;-122.600;2023-02-28T13:56:09;2.80;99.90
1361;DHT22;674;45.552;-122.600;2023-02-28T14:07:01;2.70;99.90
1361;DHT22;674;45.552;-122.600;2023-02-28T14:09:40;2.70;99.90
1361;DHT22;674;45.552;-122.600;2023-02-28T14:20:48;2.80;99.90
1361;DHT22;674;45.552;-122.600;2023-02-28T14:23:45;2.70;99.90
1361;DHT22;674;45.552;-122.600;2023-02-28T14:34:51;2.80;99.90
1361;DHT22;674;45.552;-122.600;2023-02-28T14:37:32;2.80;99.90
1361;DHT22;674;45.552;-122.600;2023-02-28T14:40:02;3.00;99.90
1361;DHT22;674;45.552;-122.600;2023-02-28T14:42:35;3.00;99.90
1361;DHT22;674;45.552;-122.600;2023-02-28T14:45:06;2.90;99.90
1361;DHT22;674;45.552;-122.600;2023-02-28T14:47:35;3.00;99.90
1361;DHT22;674;45.552;-122.600;2023-02-28T14:50:04;3.30;99.90
1361;DHT22;674;45.552;-122.600;2023-02-28T14:52:33;3.40;99.90
1361;DHT22;674;45.552;-122.600;2023-02-28T14:55:12;3.00;99.90
1361;DHT22;674;45.552;-122.600;2023-02-28T14:57:54;2.80;99.90
1361;DHT22;674;45.552;-122.600;2023-02-28T15:00:31;2.90;99.90
1361;DHT22;674;45.552;-122.600;2023-02-28T15:03:01;3.10;99.90
1361;DHT22;674;45.552;-122.600;2023-02-28T15:05:53;3.00;99.90
1361;DHT22;674;45.552;-122.600;2023-02-28T15:08:22;3.00;99.90
1361;DHT22;674;45.552;-122.600;2023-02-28T15:10:54;2.70;99.90
1361;DHT22;674;45.552;-122.600;2023-02-28T15:13:32;2.80;99.90
1361;DHT22;674;45.552;-122.600;2023-02-28T15:16:05;3.00;99.90
1361;DHT22;674;45.552;-122.600;2023-02-28T15:18:49;3.00;99.90
1361;DHT22;674;45.552;-122.600;2023-02-28T15:21:45;3.00;99.90
1361;DHT22;674;45.552;-122.600;2023-02-28T15:27:02;3.00;99.90
1361;DHT22;674;45.552;-122.600;2023-02-28T15:29:48;2.90;99.90
1361;DHT22;674;45.552;-122.600;2023-02-28T15:32:30;3.00;99.90
1361;DHT22;674;45.552;-122.600;2023-02-28T15:35:35;3.00;99.90
1361;DHT22;674;45.552;-122.600;2023-02-28T15:38:24;2.90;99.90
1361;DHT22;674;45.552;-122.600;2023-02-28T15:40:58;3.00;99.90
1361;DHT22;674;45.552;-122.600;2023-02-28T15:43:32;3.40;99.90
1361;DHT22;674;45.552;-122.600;2023-02-28T15:46:08;3.20;99.90
1361;DHT22;674;45.552;-122.600;2023-02-28T15:51:12;3.00;99.90
1361;DHT22;674;45.552;-122.600;2023-02-28T15:53:57;3.00;99.90
1361;DHT22;674;45.552;-122.600;2023-02-28T15:56:32;2.60;99.90
1361;DHT22;674;45.552;-122.600;2023-02-28T15:59:03;3.00;99.90
1361;DHT22;674;45.552;-122.600;2023-02-28T16:01:37;2.90;99.90
1361;DHT22;674;45.552;-122.600;2023-02-28T16:04:16;3.30;99.90
1361;DHT22;674;45.552;-122.600;2023-02-28T16:09:23;3.20;99.90
1361;DHT22;674;45.552;-122.600;2023-02-28T16:11:54;3.20;99.90
1361;DHT22;674;45.552;-122.600;2023-02-28T16:14:27;3.20;99.90
1361;DHT22;674;45.552;-122.600;2023-02-28T16:17:04;3.20;99.90
1361;DHT22;674;45.552;-122.600;2023-02-28T16:19:33;3.50;99.90
1361;DHT22;674;45.552;-122.600;2023-02-28T16:22:02;3.50;99.90
1361;DHT22;674;45.552;-122.600;2023-02-28T16:24:30;3.50;99.90
1361;DHT22;674;45.552;-122.600;2023-02-28T16:27:00;3.50;99.90
1361;DHT22;674;45.552;-122.600;2023-02-28T16:29:34;3.70;99.90
1361;DHT22;674;45.552;-122.600;2023-02-28T16:32:05;3.80;99.90
1361;DHT22;674;45.552;-122.600;2023-02-28T16:34:34;3.80;99.90
1361;DHT22;674;45.552;-122.600;2023-02-28T16:37:03;4.10;99.20
1361;DHT22;674;45.552;-122.600;2023-02-28T16:39:32;4.30;97.20
1361;DHT22;674;45.552;-122.600;2023-02-28T16:42:00;4.40;92.30
1361;DHT22;674;45.552;-122.600;2023-02-28T16:44:35;4.30;81.50
1361;DHT22;674;45.552;-122.600;2023-02-28T16:47:04;4.90;74.00
1361;DHT22;674;45.552;-122.600;2023-02-28T16:49:32;4.70;53.30
1361;DHT22;674;45.552;-122.600;2023-02-28T16:52:01;4.70;26.60
1361;DHT22;674;45.552;-122.600;2023-02-28T16:54:29;5.20;18.50
1361;DHT22;674;45.552;-122.600;2023-02-28T16:56:58;4.70;1.00
1361;DHT22;674;45.552;-122.600;2023-02-28T16:59:27;4.30;1.00
1361;DHT22;674;45.552;-122.600;2023-02-28T17:01:57;4.40;1.00
1361;DHT22;674;45.552;-122.600;2023-02-28T17:04:27;4.10;11.80
1361;DHT22;674;45.552;-122.600;2023-02-28T17:06:55;3.90;14.00
1361;DHT22;674;45.552;-122.600;2023-02-28T17:09:24;4.10;14.50
1361;DHT22;674;45.552;-122.600;2023-02-28T17:12:07;4.40;12.90
1361;DHT22;674;45.552;-122.600;2023-02-28T17:14:37;4.50;1.00
1361;DHT22;674;45.552;-122.600;2023-02-28T17:17:07;4.50;8.80
1361;DHT22;674;45.552;-122.600;2023-02-28T17:19:35;5.20;17.60
1361;DHT22;674;45.552;-122.600;2023-02-28T17:22:08;4.40;1.00
1361;DHT22;674;45.552;-122.600;2023-02-28T17:24:36;4.20;1.00
1361;DHT22;674;45.552;-122.600;2023-02-28T17:27:05;4.10;1.00
1361;DHT22;674;45.552;-122.600;2023-02-28T17:29:35;3.80;2.80
1361;DHT22;674;45.552;-122.600;2023-02-28T17:32:04;4.00;12.30
1361;DHT22;674;45.552;-122.600;2023-02-28T17:34:44;4.10;6.00
1361;DHT22;674;45.552;-122.600;2023-02-28T17:37:13;4.10;9.50
1361;DHT22;674;45.552;-122.600;2023-02-28T17:39:42;4.40;28.80
1361;DHT22;674;45.552;-122.600;2023-02-28T17:42:11;4.60;17.80
1361;DHT22;674;45.552;-122.600;2023-02-28T17:44:40;4.40;14.30
1361;DHT22;674;45.552;-122.600;2023-02-28T17:47:11;4.20;5.20
1361;DHT22;674;45.552;-122.600;2023-02-28T17:49:40;4.00;17.60
1361;DHT22;674;45.552;-122.600;2023-02-28T17:52:09;4.40;13.10
1361;DHT22;674;45.552;-122.600;2023-02-28T17:54:37;4.00;1.00
1361;DHT22;674;45.552;-122.600;2023-02-28T17:57:08;3.50;12.20
1361;DHT22;674;45.552;-122.600;2023-02-28T17:59:37;3.70;18.10
1361;DHT22;674;45.552;-122.600;2023-02-28T18:02:06;3.80;46.10
1361;DHT22;674;45.552;-122.600;2023-02-28T18:04:35;3.80;34.40
1361;DHT22;674;45.552;-122.600;2023-02-28T18:07:03;3.60;50.90
1361;DHT22;674;45.552;-122.600;2023-02-28T18:09:33;3.90;66.60
1361;DHT22;674;45.552;-122.600;2023-02-28T18:12:02;3.50;63.70
1361;DHT22;674;45.552;-122.600;2023-02-28T18:14:30;3.60;70.80
1361;DHT22;674;45.552;-122.600;2023-02-28T18:16:59;3.30;86.90
1361;DHT22;674;45.552;-122.600;2023-02-28T18:19:27;3.50;99.90
1361;DHT22;674;45.552;-122.600;2023-02-28T18:21:56;3.80;96.60
1361;DHT22;674;45.552;-122.600;2023-02-28T18:24:25;3.80;78.80
1361;DHT22;674;45.552;-122.600;2023-02-28T18:26:53;4.30;83.30
1361;DHT22;674;45.552;-122.600;2023-02-28T18:29:24;3.80;80.10
1361;DHT22;674;45.552;-122.600;2023-02-28T18:31:54;3.80;93.30
1361;DHT22;674;45.552;-122.600;2023-02-28T18:34:24;3.70;78.40
1361;DHT22;674;45.552;-122.600;2023-02-28T18:36:53;3.10;99.90
1361;DHT22;674;45.552;-122.600;2023-02-28T18:39:22;3.20;99.90
1361;DHT22;674;45.552;-122.600;2023-02-28T18:41:50;3.00;99.90
1361;DHT22;674;45.552;-122.600;2023-02-28T18:44:18;3.00;99.90
1361;DHT22;674;45.552;-122.600;2023-02-28T18:46:49;2.90;99.90
1361;DHT22;674;45.552;-122.600;2023-02-28T18:49:18;3.00;99.90
1361;DHT22;674;45.552;-122.600;2023-02-28T18:51:47;2.80;99.90
1361;DHT22;674;45.552;-122.600;2023-02-28T18:54:16;3.00;99.90
1361;DHT22;674;45.552;-122.600;2023-02-28T18:56:45;3.10;99.90
1361;DHT22;674;45.552;-122.600;2023-02-28T18:59:13;3.30;99.90
1361;DHT22;674;45.552;-122.600;2023-02-28T19:01:42;3.20;99.90
1361;DHT22;674;45.552;-122.600;2023-02-28T19:04:14;3.30;99.90
1361;DHT22;674;45.552;-122.600;2023-02-28T19:06:43;3.40;99.90
1361;DHT22;674;45.552;-122.600;2023-02-28T19:09:11;3.30;99.90
1361;DHT22;674;45.552;-122.600;2023-02-28T19:11:40;3.40;99.90
1361;DHT22;674;45.552;-122.600;2023-02-28T19:14:08;3.40;99.90